< < Back
Terminal Aerodrome Forecast


Current Version              Previous Versions:   1  2  3  4  5  6  7  8  9  

Terminal Aerodrome Forecast

113
FTUS42 KFFC 291100
TAFFTY
TAF
KFTY 291120Z 2912/3012 32006KT P6SM SKC
     FM291600 32008G16KT P6SM SCT050
     FM300000 32005KT P6SM SKC=

Latest METAR

108
SAUS70 KWBC 291200 RRB
MTRFTY
METAR KFTY 291153Z 32003KT 10SM CLR 19/16 A3000 RMK AO2 SLP149 T01940161
10211 20183 52009


USA.gov is the U.S. government's official web portal to all federal, state and local government web resources and services.